createdAt,value
2022-10-05T00:01:41.744Z,49.40
2022-10-05T00:04:15.753Z,54.20
2022-10-05T00:06:47.706Z,51.20
2022-10-05T00:09:20.900Z,51.80
2022-10-05T00:11:47.716Z,65.70
2022-10-05T00:14:22.783Z,65.80
2022-10-05T00:16:49.625Z,53.20
2022-10-05T00:19:23.513Z,53.30
2022-10-05T00:21:50.080Z,74.60
2022-10-05T00:24:19.243Z,61.10
2022-10-05T00:26:46.399Z,58.80
2022-10-05T00:29:18.995Z,49.20
2022-10-05T00:31:45.668Z,47.50
2022-10-05T00:34:12.417Z,56.50
2022-10-05T00:36:39.496Z,52.80
2022-10-05T00:39:05.989Z,52.90
2022-10-05T00:41:42.741Z,48.80
2022-10-05T00:44:23.824Z,55.50
2022-10-05T00:47:28.265Z,42.80
2022-10-05T00:52:44.171Z,48.50
2022-10-05T00:55:18.709Z,46.70
2022-10-05T00:58:04.988Z,44.40
2022-10-05T01:00:31.690Z,42.50
2022-10-05T01:02:59.694Z,42.80
2022-10-05T01:05:44.496Z,40.30
2022-10-05T01:08:35.743Z,38.10
2022-10-05T01:11:17.956Z,44.30
2022-10-05T01:13:44.421Z,41.80
2022-10-05T01:16:14.202Z,42.30
2022-10-05T01:19:07.509Z,38.20
2022-10-05T01:21:38.900Z,42.00
2022-10-05T01:24:22.809Z,42.10
2022-10-05T01:29:32.416Z,77.60
2022-10-05T01:32:07.737Z,71.10
2022-10-05T01:34:41.783Z,48.50
2022-10-05T01:37:23.881Z,41.00
2022-10-05T01:40:02.817Z,41.20
2022-10-05T01:42:50.610Z,40.30
2022-10-05T01:45:44.247Z,44.20
2022-10-05T01:48:20.044Z,44.30
2022-10-05T01:51:00.018Z,37.70
2022-10-05T01:53:45.265Z,45.60
2022-10-05T01:56:14.863Z,44.60
2022-10-05T01:59:03.241Z,38.80
2022-10-05T02:01:36.216Z,37.10
2022-10-05T02:04:59.835Z,38.90
2022-10-05T02:07:21.749Z,42.00
2022-10-05T02:09:59.773Z,37.90
2022-10-05T02:12:29.271Z,40.30
2022-10-05T02:14:58.685Z,36.20
2022-10-05T02:17:29.779Z,39.90
2022-10-05T02:19:59.359Z,39.40
2022-10-05T02:22:32.554Z,36.10
2022-10-05T02:25:01.072Z,35.00
2022-10-05T02:27:29.735Z,36.90
2022-10-05T02:29:58.912Z,34.40
2022-10-05T02:32:27.371Z,33.90
2022-10-05T02:34:53.958Z,36.80
2022-10-05T02:37:57.441Z,35.90
2022-10-05T02:40:41.753Z,36.50
2022-10-05T02:43:14.659Z,32.20
2022-10-05T02:46:09.868Z,29.60
2022-10-05T02:49:13.945Z,37.20
2022-10-05T02:51:51.762Z,44.50
2022-10-05T02:54:32.585Z,36.20
2022-10-05T02:57:16.764Z,33.60
2022-10-05T03:06:03.101Z,31.30
2022-10-05T03:08:47.374Z,30.70
2022-10-05T03:11:29.644Z,27.30
2022-10-05T03:14:29.025Z,33.00
2022-10-05T03:17:25.109Z,36.20
2022-10-05T03:20:13.920Z,35.30
2022-10-05T03:23:10.516Z,26.80
2022-10-05T03:26:02.653Z,29.00
2022-10-05T03:28:48.022Z,28.80
2022-10-05T03:31:26.669Z,36.00
2022-10-05T03:33:59.773Z,39.80
2022-10-05T03:36:39.013Z,36.70
2022-10-05T03:39:19.405Z,36.10
2022-10-05T03:41:51.633Z,42.30
2022-10-05T03:44:43.627Z,40.90
2022-10-05T03:47:28.834Z,29.70
2022-10-05T03:50:22.864Z,35.50
2022-10-05T03:52:51.725Z,35.70
2022-10-05T03:55:36.388Z,34.50
2022-10-05T03:58:10.679Z,30.80
2022-10-05T04:00:37.512Z,41.70
2022-10-05T04:03:18.923Z,30.80
2022-10-05T04:05:57.403Z,27.30
2022-10-05T04:08:47.877Z,25.70
2022-10-05T04:11:18.609Z,26.90
2022-10-05T04:13:54.768Z,23.70
2022-10-05T04:16:23.680Z,23.40
2022-10-05T04:18:59.084Z,21.50
2022-10-05T04:21:37.255Z,22.60
2022-10-05T04:24:07.004Z,22.60
2022-10-05T04:26:51.253Z,23.90
2022-10-05T04:29:46.150Z,21.10
2022-10-05T04:32:16.080Z,20.90
2022-10-05T04:34:45.372Z,20.00
2022-10-05T04:37:22.162Z,20.00
2022-10-05T04:39:59.043Z,21.90
2022-10-05T04:42:38.416Z,26.10
2022-10-05T04:45:09.714Z,25.20
2022-10-05T04:47:58.950Z,23.40
2022-10-05T04:50:54.829Z,23.20
2022-10-05T04:53:50.095Z,21.40
2022-10-05T04:56:20.159Z,22.10
2022-10-05T04:59:03.852Z,20.90
2022-10-05T05:01:39.927Z,22.10
2022-10-05T05:04:25.796Z,18.70
2022-10-05T05:07:28.889Z,16.70
2022-10-05T05:10:02.409Z,18.60
2022-10-05T05:12:49.607Z,22.60
2022-10-05T05:15:28.328Z,18.80
2022-10-05T05:18:10.325Z,17.40
2022-10-05T05:20:41.748Z,17.40
2022-10-05T05:23:27.154Z,18.40
2022-10-05T05:26:07.515Z,21.70
2022-10-05T05:28:54.666Z,20.00
2022-10-05T05:31:30.980Z,22.70
2022-10-05T05:34:04.117Z,18.50
2022-10-05T05:37:00.881Z,21.00
2022-10-05T05:40:14.208Z,23.50
2022-10-05T05:42:55.956Z,23.20
2022-10-05T05:45:48.777Z,21.70
2022-10-05T05:48:47.099Z,22.40
2022-10-05T05:51:22.403Z,23.30
2022-10-05T05:53:55.519Z,22.50
2022-10-05T05:56:30.646Z,18.90
2022-10-05T05:59:02.671Z,20.30
2022-10-05T06:01:46.163Z,17.10
2022-10-05T06:04:25.215Z,16.50
2022-10-05T06:06:53.212Z,17.00
2022-10-05T06:09:47.835Z,16.10
2022-10-05T06:12:32.877Z,18.20
2022-10-05T06:15:05.495Z,19.30
2022-10-05T06:17:41.584Z,21.20
2022-10-05T06:20:28.977Z,20.50
2022-10-05T06:22:56.007Z,18.50
2022-10-05T06:25:57.406Z,17.90
2022-10-05T06:28:25.114Z,19.20
2022-10-05T06:31:04.377Z,17.30
2022-10-05T06:33:52.005Z,20.50
2022-10-05T06:36:22.234Z,16.20
2022-10-05T06:39:07.935Z,14.30
2022-10-05T06:41:42.712Z,16.70
2022-10-05T06:44:23.441Z,14.20
2022-10-05T06:47:23.568Z,16.90
2022-10-05T06:49:56.842Z,14.50
2022-10-05T06:52:29.563Z,14.40
2022-10-05T06:54:58.846Z,15.00
2022-10-05T06:57:52.902Z,12.90
2022-10-05T07:00:24.971Z,14.60
2022-10-05T07:03:18.667Z,10.50
2022-10-05T07:05:54.566Z,10.00
2022-10-05T07:08:34.066Z,10.10
2022-10-05T07:11:18.912Z,12.50
2022-10-05T07:14:06.796Z,12.10
2022-10-05T07:16:47.161Z,12.70
2022-10-05T07:19:22.265Z,14.80
2022-10-05T07:21:58.165Z,12.50
2022-10-05T07:24:29.368Z,12.70
2022-10-05T07:30:56.436Z,12.20
2022-10-05T07:33:29.038Z,12.10
2022-10-05T07:36:20.316Z,10.10
2022-10-05T07:38:54.773Z,11.20
2022-10-05T07:41:47.953Z,10.80
2022-10-05T07:44:29.631Z,8.10
2022-10-05T07:47:04.913Z,8.90
2022-10-05T07:50:09.953Z,8.90
2022-10-05T07:52:37.972Z,7.70
2022-10-05T07:55:06.902Z,11.10
2022-10-05T07:57:58.672Z,15.20
2022-10-05T08:00:26.338Z,10.10
2022-10-05T08:02:58.646Z,9.40
2022-10-05T08:05:43.676Z,8.70
2022-10-05T08:08:15.505Z,9.50
2022-10-05T08:11:14.884Z,8.90
2022-10-05T08:13:56.579Z,8.30
2022-10-05T08:16:23.495Z,8.80
2022-10-05T08:19:06.746Z,8.20
2022-10-05T08:21:35.496Z,7.80
2022-10-05T08:24:07.207Z,9.30
2022-10-05T08:26:36.335Z,8.30
2022-10-05T08:29:17.278Z,11.30
2022-10-05T08:31:46.349Z,8.90
2022-10-05T08:34:25.113Z,10.50
2022-10-05T08:37:03.820Z,8.40
2022-10-05T08:39:34.363Z,9.70
2022-10-05T08:42:10.339Z,8.90
2022-10-05T08:44:55.320Z,9.50
2022-10-05T08:47:28.299Z,7.50
2022-10-05T08:52:56.445Z,8.30
2022-10-05T08:55:43.811Z,8.40
2022-10-05T08:58:19.977Z,8.70
2022-10-05T09:00:57.721Z,8.80
2022-10-05T09:03:51.614Z,8.30
2022-10-05T09:06:22.607Z,9.00
2022-10-05T09:08:55.695Z,7.60
2022-10-05T09:14:11.774Z,9.90
2022-10-05T09:16:59.308Z,9.10
2022-10-05T09:19:47.333Z,7.40
2022-10-05T09:22:38.622Z,7.70
2022-10-05T09:25:30.764Z,9.50
2022-10-05T09:28:21.927Z,8.80
2022-10-05T09:31:20.458Z,8.50
2022-10-05T09:34:26.006Z,8.70
2022-10-05T09:37:11.855Z,7.60
2022-10-05T09:40:04.041Z,7.00
2022-10-05T09:42:34.274Z,7.40
2022-10-05T09:45:45.881Z,8.00
2022-10-05T09:48:34.191Z,7.80
2022-10-05T09:51:00.762Z,8.60
2022-10-05T09:53:42.574Z,8.20
2022-10-05T09:56:21.266Z,7.60
2022-10-05T09:59:25.666Z,8.10
2022-10-05T10:02:30.912Z,8.90
2022-10-05T10:05:16.627Z,8.60
2022-10-05T10:08:00.820Z,9.30
2022-10-05T10:10:52.996Z,7.70
2022-10-05T10:13:31.722Z,9.20
2022-10-05T10:16:16.987Z,8.00
2022-10-05T10:19:06.794Z,9.50
2022-10-05T10:21:54.828Z,9.40
2022-10-05T10:24:26.138Z,8.80
2022-10-05T10:27:05.726Z,7.00
2022-10-05T10:29:33.982Z,7.80
2022-10-05T10:32:21.656Z,8.60
2022-10-05T10:35:00.499Z,8.60
2022-10-05T10:38:12.480Z,6.10
2022-10-05T10:41:02.703Z,6.40
2022-10-05T10:43:29.815Z,10.70
2022-10-05T10:46:00.027Z,9.50
2022-10-05T10:48:29.543Z,7.40
2022-10-05T10:51:14.612Z,9.60
2022-10-05T10:54:05.416Z,9.00
2022-10-05T10:56:55.505Z,8.60
2022-10-05T11:00:20.881Z,7.20
2022-10-05T11:02:54.907Z,7.80
2022-10-05T11:05:52.265Z,8.80
2022-10-05T11:08:37.894Z,8.10
2022-10-05T11:11:29.567Z,7.20
2022-10-05T11:14:04.997Z,8.30
2022-10-05T11:16:43.675Z,7.60
2022-10-05T11:19:10.441Z,8.10
2022-10-05T11:22:00.280Z,10.50
2022-10-05T11:24:50.589Z,7.20
2022-10-05T11:27:41.398Z,9.40
2022-10-05T11:30:40.306Z,7.70
2022-10-05T11:33:34.646Z,9.70
2022-10-05T11:36:26.238Z,9.50
2022-10-05T11:39:05.482Z,8.50
2022-10-05T11:42:09.431Z,8.90
2022-10-05T11:44:54.642Z,7.70
2022-10-05T11:47:42.175Z,9.60
2022-10-05T11:50:26.905Z,8.70
2022-10-05T11:53:00.116Z,7.50
2022-10-05T11:58:15.962Z,9.10
2022-10-05T12:00:44.289Z,7.80
2022-10-05T12:03:35.442Z,8.40
2022-10-05T12:06:25.732Z,7.70
2022-10-05T12:09:14.466Z,8.30
2022-10-05T12:12:23.163Z,7.90
2022-10-05T12:14:54.665Z,6.70
2022-10-05T12:17:21.258Z,9.00
2022-10-05T12:20:28.255Z,8.40
2022-10-05T12:23:00.743Z,9.00
2022-10-05T12:25:33.131Z,6.60
2022-10-05T12:28:05.063Z,7.10
2022-10-05T12:30:58.204Z,7.30
2022-10-05T12:33:26.551Z,7.00
2022-10-05T12:35:56.128Z,8.40
2022-10-05T12:38:30.788Z,7.50
2022-10-05T12:41:04.526Z,10.40
2022-10-05T12:43:54.385Z,9.20
2022-10-05T12:46:29.906Z,9.80
2022-10-05T12:49:06.978Z,11.40
2022-10-05T12:51:58.533Z,9.10
2022-10-05T12:54:47.704Z,8.60
2022-10-05T12:57:32.665Z,8.20
2022-10-05T13:00:01.747Z,8.10
2022-10-05T13:02:42.483Z,8.20
2022-10-05T13:05:09.538Z,7.70
2022-10-05T13:07:54.774Z,7.60
2022-10-05T13:10:39.415Z,11.00
2022-10-05T13:13:34.231Z,7.90
2022-10-05T13:16:17.223Z,9.10
2022-10-05T13:19:15.563Z,8.50
2022-10-05T13:22:10.274Z,10.00
2022-10-05T13:24:59.515Z,9.40
2022-10-05T13:27:47.266Z,10.70
2022-10-05T13:30:19.150Z,8.50
2022-10-05T13:32:47.953Z,9.50
2022-10-05T13:35:53.406Z,11.40
2022-10-05T13:38:34.171Z,9.30
2022-10-05T13:41:14.782Z,7.80
2022-10-05T13:43:51.482Z,9.40
2022-10-05T13:46:23.732Z,10.90
2022-10-05T13:49:09.093Z,10.40
2022-10-05T13:51:41.108Z,9.00
2022-10-05T13:54:45.160Z,9.70
2022-10-05T13:59:51.218Z,9.50
2022-10-05T14:02:40.147Z,9.10
2022-10-05T14:05:29.795Z,8.40
2022-10-05T14:08:02.475Z,8.80
2022-10-05T14:10:38.590Z,8.40
2022-10-05T14:13:32.367Z,8.40
2022-10-05T14:18:28.032Z,9.70
2022-10-05T14:21:18.822Z,11.50
2022-10-05T14:23:45.367Z,7.90
2022-10-05T14:26:27.526Z,9.70
2022-10-05T14:29:19.482Z,9.40
2022-10-05T14:31:58.476Z,9.00
2022-10-05T14:34:35.539Z,9.60
2022-10-05T14:37:23.398Z,8.90
2022-10-05T14:39:52.220Z,9.60
2022-10-05T14:42:27.809Z,8.70
2022-10-05T14:45:11.920Z,8.70
2022-10-05T14:47:54.402Z,8.20
2022-10-05T14:50:26.213Z,10.80
2022-10-05T14:53:22.571Z,10.60
2022-10-05T14:55:55.917Z,9.00
2022-10-05T15:00:56.955Z,9.70
2022-10-05T15:03:41.770Z,14.50
2022-10-05T15:06:16.262Z,10.20
2022-10-05T15:09:17.652Z,10.10
2022-10-05T15:11:47.132Z,9.20
2022-10-05T15:14:25.445Z,10.10
2022-10-05T15:16:54.044Z,7.80
2022-10-05T15:19:27.873Z,8.90
2022-10-05T15:22:19.541Z,9.60
2022-10-05T15:24:53.232Z,9.10
2022-10-05T15:27:36.474Z,10.60
2022-10-05T15:30:13.997Z,9.90
2022-10-05T15:33:08.729Z,9.90
2022-10-05T15:35:44.607Z,9.40
2022-10-05T15:38:34.258Z,9.20
2022-10-05T15:41:20.619Z,8.70
2022-10-05T15:44:13.451Z,9.40
2022-10-05T15:47:02.834Z,9.70
2022-10-05T15:49:37.081Z,11.40
2022-10-05T15:52:12.176Z,11.60
2022-10-05T15:55:04.804Z,11.90
2022-10-05T15:57:53.643Z,12.90
2022-10-05T16:00:21.047Z,12.10
2022-10-05T16:03:02.662Z,11.70
2022-10-05T16:05:56.648Z,11.40
2022-10-05T16:11:42.539Z,12.50
2022-10-05T16:14:43.521Z,16.30
2022-10-05T16:17:47.324Z,14.40
2022-10-05T16:20:23.007Z,12.50
2022-10-05T16:22:52.131Z,11.40
2022-10-05T16:25:34.948Z,12.20
2022-10-05T16:28:20.461Z,12.30
2022-10-05T16:31:03.269Z,14.60
2022-10-05T16:33:48.007Z,12.30
2022-10-05T16:36:26.712Z,12.50
2022-10-05T16:39:01.330Z,12.30
2022-10-05T16:41:35.105Z,11.70
2022-10-05T16:44:13.466Z,13.10
2022-10-05T16:46:47.098Z,13.70
2022-10-05T16:49:38.537Z,24.10
2022-10-05T16:52:07.224Z,35.90
2022-10-05T16:54:47.713Z,26.80
2022-10-05T16:57:27.543Z,32.80
2022-10-05T17:00:19.472Z,25.20
2022-10-05T17:02:55.403Z,38.30
2022-10-05T17:06:07.851Z,74.10
2022-10-05T17:09:19.083Z,50.30
2022-10-05T17:12:10.663Z,25.50
2022-10-05T17:14:59.292Z,30.20
2022-10-05T17:17:51.997Z,19.30
2022-10-05T17:20:42.767Z,19.40
2022-10-05T17:23:31.244Z,19.40
2022-10-05T17:26:34.418Z,55.60
2022-10-05T17:29:32.161Z,47.80
2022-10-05T17:32:12.235Z,79.70
2022-10-05T17:34:39.995Z,104.40
2022-10-05T17:37:36.012Z,43.20
2022-10-05T17:40:28.584Z,20.70
2022-10-05T17:43:17.310Z,20.70
2022-10-05T17:45:43.807Z,18.20
2022-10-05T17:48:13.337Z,21.00
2022-10-05T17:51:05.490Z,18.90
2022-10-05T17:54:07.409Z,18.30
2022-10-05T17:56:48.890Z,18.70
2022-10-05T17:59:46.354Z,16.90
2022-10-05T18:02:43.455Z,15.50
2022-10-05T18:05:12.197Z,13.70
2022-10-05T18:07:39.562Z,16.70
2022-10-05T18:10:12.204Z,15.70
2022-10-05T18:12:42.514Z,20.60
2022-10-05T18:15:24.477Z,19.20
2022-10-05T18:17:51.560Z,22.80
2022-10-05T18:20:24.000Z,17.30
2022-10-05T18:22:53.348Z,16.10
2022-10-05T18:25:27.206Z,14.50
2022-10-05T18:28:09.117Z,15.90
2022-10-05T18:31:05.929Z,14.70
2022-10-05T18:33:54.689Z,12.50
2022-10-05T18:36:44.579Z,11.90
2022-10-05T18:39:15.394Z,15.40
2022-10-05T18:42:22.993Z,20.00
2022-10-05T18:44:51.734Z,15.20
2022-10-05T18:47:22.458Z,20.40
2022-10-05T18:49:51.838Z,13.30
2022-10-05T18:52:36.599Z,12.80
2022-10-05T18:55:24.829Z,12.40
2022-10-05T18:58:00.750Z,11.90
2022-10-05T19:00:40.994Z,11.50
2022-10-05T19:03:26.846Z,16.10
2022-10-05T19:06:13.043Z,12.00
2022-10-05T19:09:24.741Z,10.00
2022-10-05T19:12:12.215Z,9.80
2022-10-05T19:15:06.784Z,10.90
2022-10-05T19:17:52.189Z,12.20
2022-10-05T19:20:41.698Z,13.50
2022-10-05T19:23:16.872Z,16.60
2022-10-05T19:25:47.689Z,17.80
2022-10-05T19:28:29.716Z,13.20
2022-10-05T19:31:21.335Z,12.50
2022-10-05T19:34:10.746Z,12.30
2022-10-05T19:37:10.519Z,12.20
2022-10-05T19:39:46.433Z,10.70
2022-10-05T19:42:47.329Z,12.00
2022-10-05T19:45:27.224Z,12.00
2022-10-05T19:48:02.918Z,10.30
2022-10-05T19:50:30.934Z,11.60
2022-10-05T19:53:23.178Z,13.40
2022-10-05T19:55:49.854Z,12.70
2022-10-05T19:58:25.239Z,11.20
2022-10-05T20:00:58.648Z,12.20
2022-10-05T20:03:32.439Z,11.30
2022-10-05T20:06:06.003Z,13.10
2022-10-05T20:11:19.566Z,14.20
2022-10-05T20:13:48.475Z,19.50
2022-10-05T20:16:33.814Z,16.60
2022-10-05T20:19:19.694Z,13.80
2022-10-05T20:21:46.203Z,15.70
2022-10-05T20:24:20.958Z,15.80
2022-10-05T20:27:16.542Z,17.60
2022-10-05T20:29:44.266Z,16.20
2022-10-05T20:32:12.292Z,14.20
2022-10-05T20:34:43.557Z,15.40
2022-10-05T20:37:11.642Z,14.30
2022-10-05T20:39:38.419Z,15.20
2022-10-05T20:42:05.273Z,15.80
2022-10-05T20:44:31.877Z,13.70
2022-10-05T20:46:58.723Z,13.20
2022-10-05T20:49:26.580Z,12.10
2022-10-05T20:51:55.685Z,12.50
2022-10-05T20:54:25.283Z,13.30
2022-10-05T20:56:52.386Z,15.60
2022-10-05T20:59:19.123Z,16.50
2022-10-05T21:01:48.137Z,16.40
2022-10-05T21:04:18.991Z,17.70
2022-10-05T21:06:45.954Z,16.90
2022-10-05T21:09:14.702Z,18.50
2022-10-05T21:11:45.177Z,18.00
2022-10-05T21:14:11.947Z,18.20
2022-10-05T21:16:40.923Z,21.20
2022-10-05T21:19:12.307Z,23.80
2022-10-05T21:21:40.170Z,27.80
2022-10-05T21:24:06.908Z,24.70
2022-10-05T21:26:33.838Z,25.60
2022-10-05T21:29:01.124Z,25.50
2022-10-05T21:31:28.276Z,28.00
2022-10-05T21:33:55.167Z,29.20
2022-10-05T21:36:24.578Z,25.80
2022-10-05T21:38:51.953Z,23.00
2022-10-05T21:41:18.982Z,25.10
2022-10-05T21:43:45.703Z,22.70
2022-10-05T21:46:14.592Z,21.90
2022-10-05T21:48:41.558Z,22.60
2022-10-05T21:51:08.777Z,19.20
2022-10-05T21:53:37.820Z,22.30
2022-10-05T21:56:05.684Z,19.80
2022-10-05T21:58:32.410Z,24.20
2022-10-05T22:00:58.905Z,21.90
2022-10-05T22:03:25.692Z,21.10
2022-10-05T22:05:52.395Z,17.30
2022-10-05T22:08:24.706Z,19.00
2022-10-05T22:10:52.922Z,20.20
2022-10-05T22:13:19.830Z,18.30
2022-10-05T22:15:46.455Z,15.80
2022-10-05T22:18:15.899Z,17.90
2022-10-05T22:20:42.943Z,18.70
2022-10-05T22:23:09.477Z,16.80
2022-10-05T22:25:36.172Z,15.70
2022-10-05T22:28:02.908Z,16.40
2022-10-05T22:30:29.521Z,14.30
2022-10-05T22:32:56.277Z,15.30
2022-10-05T22:35:22.884Z,16.10
2022-10-05T22:37:49.403Z,17.90
2022-10-05T22:40:16.289Z,17.10
2022-10-05T22:42:43.271Z,14.20
2022-10-05T22:45:09.734Z,13.50
2022-10-05T22:47:36.358Z,11.90
2022-10-05T22:50:03.458Z,10.90
2022-10-05T22:52:29.905Z,9.20
2022-10-05T22:54:56.830Z,10.30
2022-10-05T22:57:23.665Z,9.90
2022-10-05T22:59:50.169Z,11.20
2022-10-05T23:02:18.808Z,9.40
2022-10-05T23:04:46.160Z,12.90
2022-10-05T23:07:12.604Z,11.50
2022-10-05T23:09:39.421Z,10.80
2022-10-05T23:12:06.151Z,9.40
2022-10-05T23:14:33.401Z,11.50
2022-10-05T23:17:00.432Z,8.90
2022-10-05T23:19:26.990Z,10.00
2022-10-05T23:21:53.626Z,9.10
2022-10-05T23:24:20.570Z,8.40
2022-10-05T23:26:47.027Z,10.30
2022-10-05T23:29:13.525Z,10.50
2022-10-05T23:31:40.790Z,9.20
2022-10-05T23:34:07.427Z,10.90
2022-10-05T23:36:33.918Z,10.70
2022-10-05T23:39:01.001Z,8.10
2022-10-05T23:41:27.509Z,9.80
2022-10-05T23:43:55.391Z,10.40
2022-10-05T23:46:22.588Z,9.60
2022-10-05T23:48:50.536Z,10.20
2022-10-05T23:51:17.063Z,9.70
2022-10-05T23:53:44.224Z,10.80
2022-10-05T23:56:10.690Z,11.60
2022-10-05T23:58:37.337Z,8.10
